Home > Products > Valid Products > TAF

000
FTUS45 KREV 072327
TAFRNO
TAF
KRNO 072327Z 0800/0824 36008KT P6SM VCSH BKN110
     FM080300 VRB04KT P6SM SCT120 BKN250
     FM082100 23008KT P6SM VCTS SCT070CB BKN100=



000
FTUS45 KREV 072327
TAFRNO
TAF
KRNO 072327Z 0800/0824 36008KT P6SM VCSH BKN110
     FM080300 VRB04KT P6SM SCT120 BKN250
     FM082100 23008KT P6SM VCTS SCT070CB BKN100=



000
FTUS45 KREV 072201 AAD
TAFRNO
TAF AMD
KRNO 072201Z 0722/0818 23015G25KT P6SM VCTS BKN090CB BKN120
     FM072300 33007KT P6SM VCSH SCT070 BKN140
     FM080400 VRB04KT P6SM SCT120 BKN250=



000
FTUS45 KREV 072201 AAD
TAFRNO
TAF AMD
KRNO 072201Z 0722/0818 23015G25KT P6SM VCTS BKN090CB BKN120
     FM072300 33007KT P6SM VCSH SCT070 BKN140
     FM080400 VRB04KT P6SM SCT120 BKN250=



000
FTUS45 KREV 072144 AAC
TAFRNO
TAF AMD
KRNO 072144Z 0722/0818 19040G55KT 3SM TSRA BKN060CB BKN090
     FM072300 33007KT P6SM VCTS SCT070CB BKN140
     FM080400 VRB04KT P6SM SCT120 BKN250=



000
FTUS45 KREV 072144 AAC
TAFRNO
TAF AMD
KRNO 072144Z 0722/0818 19040G55KT 3SM TSRA BKN060CB BKN090
     FM072300 33007KT P6SM VCTS SCT070CB BKN140
     FM080400 VRB04KT P6SM SCT120 BKN250=



000
FTUS45 KREV 072114 AAB
TAFRNO
TAF AMD
KRNO 072114Z 0721/0818 07010G20KT P6SM VCTS SCT090CB BKN140
      TEMPO 0721/0723 19011G25KT -TSRA BKN060CB BKN090
     FM080100 33007KT P6SM VCSH SCT070 BKN140
     FM080400 VRB04KT P6SM SCT120 BKN250=



000
FTUS45 KREV 072114 AAB
TAFRNO
TAF AMD
KRNO 072114Z 0721/0818 07010G20KT P6SM VCTS SCT090CB BKN140
      TEMPO 0721/0723 19011G25KT -TSRA BKN060CB BKN090
     FM080100 33007KT P6SM VCSH SCT070 BKN140
     FM080400 VRB04KT P6SM SCT120 BKN250=



000
FTUS45 KREV 072048 AAA
TAFRNO
TAF AMD
KRNO 072048Z 0721/0818 VRB05KT P6SM SCT100 SCT160
     FM072130 19011KT P6SM VCTS BKN080CB BKN120
     FM080100 33007KT P6SM VCSH SCT070 BKN140
     FM080400 VRB04KT P6SM SCT120 BKN250=



000
FTUS45 KREV 072048 AAA
TAFRNO
TAF AMD
KRNO 072048Z 0721/0818 VRB05KT P6SM SCT100 SCT160
     FM072130 19011KT P6SM VCTS BKN080CB BKN120
     FM080100 33007KT P6SM VCSH SCT070 BKN140
     FM080400 VRB04KT P6SM SCT120 BKN250=



000
FTUS45 KREV 071736
TAFRNO
TAF
KRNO 071736Z 0718/0818 VRB04KT P6SM SCT090 BKN250
     FM072200 19011KT P6SM VCTS BKN080CB BKN120
     FM080100 33007KT P6SM VCSH SCT070 BKN140
     FM080400 VRB04KT P6SM SCT120 BKN250=



000
FTUS45 KREV 071736
TAFRNO
TAF
KRNO 071736Z 0718/0818 VRB04KT P6SM SCT090 BKN250
     FM072200 19011KT P6SM VCTS BKN080CB BKN120
     FM080100 33007KT P6SM VCSH SCT070 BKN140
     FM080400 VRB04KT P6SM SCT120 BKN250=



000
FTUS45 KREV 071736
TAFRNO
TAF
KRNO 071736Z 0718/0818 VRB04KT P6SM SCT090 BKN250
     FM072200 19011KT P6SM VCTS BKN080CB BKN120
     FM080100 33007KT P6SM VCSH SCT070 BKN140
     FM080400 VRB04KT P6SM SCT120 BKN250=



000
FTUS45 KREV 071736
TAFRNO
TAF
KRNO 071736Z 0718/0818 VRB04KT P6SM SCT090 BKN250
     FM072200 19011KT P6SM VCTS BKN080CB BKN120
     FM080100 33007KT P6SM VCSH SCT070 BKN140
     FM080400 VRB04KT P6SM SCT120 BKN250=



000
FTUS45 KREV 071125
TAFRNO
TAF
KRNO 071125Z 0712/0812 VRB04KT P6SM BKN150
     FM071600 VRB04KT P6SM SCT150 SCT250
     FM072300 19007KT P6SM VCTS SCT070CB BKN120
     FM080200 32007KT P6SM VCSH SCT070 SCT120 BKN250
     FM080500 VRB04KT P6SM SCT120 BKN250=



000
FTUS45 KREV 071125
TAFRNO
TAF
KRNO 071125Z 0712/0812 VRB04KT P6SM BKN150
     FM071600 VRB04KT P6SM SCT150 SCT250
     FM072300 19007KT P6SM VCTS SCT070CB BKN120
     FM080200 32007KT P6SM VCSH SCT070 SCT120 BKN250
     FM080500 VRB04KT P6SM SCT120 BKN250=



000
FTUS45 KREV 071125
TAFRNO
TAF
KRNO 071125Z 0712/0812 VRB04KT P6SM BKN150
     FM071600 VRB04KT P6SM SCT150 SCT250
     FM072300 19007KT P6SM VCTS SCT070CB BKN120
     FM080200 32007KT P6SM VCSH SCT070 SCT120 BKN250
     FM080500 VRB04KT P6SM SCT120 BKN250=



000
FTUS45 KREV 070520
TAFRNO
TAF
KRNO 070520Z 0706/0806 VRB04KT P6SM SCT140
     FM072300 08005KT P6SM VCTS SCT070CB BKN100
     FM080200 VRB03KT P6SM SCT120 BKN200=



000
FTUS45 KREV 070520
TAFRNO
TAF
KRNO 070520Z 0706/0806 VRB04KT P6SM SCT140
     FM072300 08005KT P6SM VCTS SCT070CB BKN100
     FM080200 VRB03KT P6SM SCT120 BKN200=



000
FTUS45 KREV 070520
TAFRNO
TAF
KRNO 070520Z 0706/0806 VRB04KT P6SM SCT140
     FM072300 08005KT P6SM VCTS SCT070CB BKN100
     FM080200 VRB03KT P6SM SCT120 BKN200=



000
FTUS45 KREV 070520
TAFRNO
TAF
KRNO 070520Z 0706/0806 VRB04KT P6SM SCT140
     FM072300 08005KT P6SM VCTS SCT070CB BKN100
     FM080200 VRB03KT P6SM SCT120 BKN200=



000
FTUS45 KREV 062329
TAFRNO
TAF
KRNO 062329Z 0700/0724 25010G20KT 3SM -TSRA SCT050 BKN080CB
     FM070100 30008KT P6SM VCTS SCT060CB BKN090
     FM070300 VRB04KT P6SM FEW100 SCT150 BKN200
     FM071200 VRB03KT P6SM SKC
     FM072100 08005KT P6SM VCTS SCT070CB BKN100=



000
FTUS45 KREV 062329
TAFRNO
TAF
KRNO 062329Z 0700/0724 25010G20KT 3SM -TSRA SCT050 BKN080CB
     FM070100 30008KT P6SM VCTS SCT060CB BKN090
     FM070300 VRB04KT P6SM FEW100 SCT150 BKN200
     FM071200 VRB03KT P6SM SKC
     FM072100 08005KT P6SM VCTS SCT070CB BKN100=



000
FTUS45 KREV 062313 AAA
TAFRNO
TAF AMD
KRNO 062313Z 0623/0718 23010G20KT 3SM -TSRA SCT030 BKN050CB OVC090
     FM070200 30008KT P6SM SCT060 BKN100
     FM070800 VRB04KT P6SM FEW100 SCT150 BKN200
     FM071200 VRB03KT P6SM SKC=



000
FTUS45 KREV 062313 AAA
TAFRNO
TAF AMD
KRNO 062313Z 0623/0718 23010G20KT 3SM -TSRA SCT030 BKN050CB OVC090
     FM070200 30008KT P6SM SCT060 BKN100
     FM070800 VRB04KT P6SM FEW100 SCT150 BKN200
     FM071200 VRB03KT P6SM SKC=



000
FTUS45 KREV 061722
TAFRNO
TAF
KRNO 061722Z 0618/0718 VRB03KT P6SM FEW090
     FM062200 VRB04KT P6SM VCSH SCT080 BKN120
     FM070200 30008KT P6SM SCT060 BKN100
     FM070800 VRB04KT P6SM FEW100 SCT150 BKN200
     FM071200 VRB03KT P6SM SKC=



000
FTUS45 KREV 061722
TAFRNO
TAF
KRNO 061722Z 0618/0718 VRB03KT P6SM FEW090
     FM062200 VRB04KT P6SM VCSH SCT080 BKN120
     FM070200 30008KT P6SM SCT060 BKN100
     FM070800 VRB04KT P6SM FEW100 SCT150 BKN200
     FM071200 VRB03KT P6SM SKC=



000
FTUS45 KREV 061121
TAFRNO
TAF
KRNO 061121Z 0612/0712 VRB03KT P6SM FEW100 SCT200
     FM062200 VRB04KT P6SM VCSH SCT080 BKN120
     FM070200 30008KT P6SM SCT100 BKN150
     FM070800 VRB04KT P6SM FEW100 SCT150 BKN200=



000
FTUS45 KREV 061121
TAFRNO
TAF
KRNO 061121Z 0612/0712 VRB03KT P6SM FEW100 SCT200
     FM062200 VRB04KT P6SM VCSH SCT080 BKN120
     FM070200 30008KT P6SM SCT100 BKN150
     FM070800 VRB04KT P6SM FEW100 SCT150 BKN200=



000
FTUS45 KREV 061121
TAFRNO
TAF
KRNO 061121Z 0612/0712 VRB03KT P6SM FEW100 SCT200
     FM062200 VRB04KT P6SM VCSH SCT080 BKN120
     FM070200 30008KT P6SM SCT100 BKN150
     FM070800 VRB04KT P6SM FEW100 SCT150 BKN200=



000
FTUS45 KREV 061121
TAFRNO
TAF
KRNO 061121Z 0612/0712 VRB03KT P6SM FEW100 SCT200
     FM062200 VRB04KT P6SM VCSH SCT080 BKN120
     FM070200 30008KT P6SM SCT100 BKN150
     FM070800 VRB04KT P6SM FEW100 SCT150 BKN200=



000
FTUS45 KREV 060526
TAFRNO
TAF
KRNO 060526Z 0606/0706 VRB03KT P6SM FEW100 SCT150
     FM062100 VRB03KT P6SM VCSH SCT080 BKN120
     FM070100 30008KT P6SM SCT100 BKN150=



000
FTUS45 KREV 060526
TAFRNO
TAF
KRNO 060526Z 0606/0706 VRB03KT P6SM FEW100 SCT150
     FM062100 VRB03KT P6SM VCSH SCT080 BKN120
     FM070100 30008KT P6SM SCT100 BKN150=



000
FTUS45 KREV 060526
TAFRNO
TAF
KRNO 060526Z 0606/0706 VRB03KT P6SM FEW100 SCT150
     FM062100 VRB03KT P6SM VCSH SCT080 BKN120
     FM070100 30008KT P6SM SCT100 BKN150=



000
FTUS45 KREV 060526
TAFRNO
TAF
KRNO 060526Z 0606/0706 VRB03KT P6SM FEW100 SCT150
     FM062100 VRB03KT P6SM VCSH SCT080 BKN120
     FM070100 30008KT P6SM SCT100 BKN150=



000
FTUS45 KREV 060347 AAB
TAFRNO
TAF AMD
KRNO 060347Z 0604/0624 28010KT P6SM VCTS SCT080 BKN120CB
     FM060415 VRB03KT P6SM FEW100
     FM062100 VRB03KT P6SM VCSH SCT080 BKN120=



000
FTUS45 KREV 060347 AAB
TAFRNO
TAF AMD
KRNO 060347Z 0604/0624 28010KT P6SM VCTS SCT080 BKN120CB
     FM060415 VRB03KT P6SM FEW100
     FM062100 VRB03KT P6SM VCSH SCT080 BKN120=



000
FTUS45 KREV 060124 AAA
TAFRNO
TAF AMD
KRNO 060124Z 0601/0624 28010KT P6SM VCTS SCT080 BKN120CB
     FM060215 VRB03KT P6SM FEW100
     FM062100 VRB03KT P6SM VCSH SCT080 BKN120=



000
FTUS45 KREV 052320
TAFRNO
TAF
KRNO 052320Z 0600/0624 34010KT P6SM SCT080 SCT120
     FM060400 VRB03KT P6SM FEW100
     FM062100 VRB03KT P6SM VCSH SCT080 BKN120=



000
FTUS45 KREV 052320
TAFRNO
TAF
KRNO 052320Z 0600/0624 34010KT P6SM SCT080 SCT120
     FM060400 VRB03KT P6SM FEW100
     FM062100 VRB03KT P6SM VCSH SCT080 BKN120=



000
FTUS45 KREV 051720
TAFRNO
TAF
KRNO 051720Z 0518/0618 VRB04KT P6SM FEW100
     FM052200 33008KT P6SM VCSH SCT080 BKN120
     FM060200 33010KT P6SM SCT120
     FM060600 VRB03KT P6SM FEW100=



000
FTUS45 KREV 051720
TAFRNO
TAF
KRNO 051720Z 0518/0618 VRB04KT P6SM FEW100
     FM052200 33008KT P6SM VCSH SCT080 BKN120
     FM060200 33010KT P6SM SCT120
     FM060600 VRB03KT P6SM FEW100=



000
FTUS45 KREV 051720
TAFRNO
TAF
KRNO 051720Z 0518/0618 VRB04KT P6SM FEW100
     FM052200 33008KT P6SM VCSH SCT080 BKN120
     FM060200 33010KT P6SM SCT120
     FM060600 VRB03KT P6SM FEW100=



000
FTUS45 KREV 051720
TAFRNO
TAF
KRNO 051720Z 0518/0618 VRB04KT P6SM FEW100
     FM052200 33008KT P6SM VCSH SCT080 BKN120
     FM060200 33010KT P6SM SCT120
     FM060600 VRB03KT P6SM FEW100=



000
FTUS45 KREV 051126
TAFRNO
TAF
KRNO 051126Z 0512/0612 VRB04KT P6SM FEW120 SCT200
     FM052200 28008KT P6SM VCSH BKN110 BKN200
     FM060400 30007KT P6SM SCT120 BKN200=



000
FTUS45 KREV 051126
TAFRNO
TAF
KRNO 051126Z 0512/0612 VRB04KT P6SM FEW120 SCT200
     FM052200 28008KT P6SM VCSH BKN110 BKN200
     FM060400 30007KT P6SM SCT120 BKN200=



000
FTUS45 KREV 051126
TAFRNO
TAF
KRNO 051126Z 0512/0612 VRB04KT P6SM FEW120 SCT200
     FM052200 28008KT P6SM VCSH BKN110 BKN200
     FM060400 30007KT P6SM SCT120 BKN200=



000
FTUS45 KREV 051126
TAFRNO
TAF
KRNO 051126Z 0512/0612 VRB04KT P6SM FEW120 SCT200
     FM052200 28008KT P6SM VCSH BKN110 BKN200
     FM060400 30007KT P6SM SCT120 BKN200=



000
FTUS45 KREV 050520
TAFRNO
TAF
KRNO 050520Z 0506/0606 VRB04KT P6SM SCT120 SCT200
     FM052100 23008KT P6SM VCSH BKN110 BKN180
     FM060300 VRB04KT P6SM SCT120 BKN200=



000
FTUS45 KREV 050520
TAFRNO
TAF
KRNO 050520Z 0506/0606 VRB04KT P6SM SCT120 SCT200
     FM052100 23008KT P6SM VCSH BKN110 BKN180
     FM060300 VRB04KT P6SM SCT120 BKN200=



000
FTUS45 KREV 050520
TAFRNO
TAF
KRNO 050520Z 0506/0606 VRB04KT P6SM SCT120 SCT200
     FM052100 23008KT P6SM VCSH BKN110 BKN180
     FM060300 VRB04KT P6SM SCT120 BKN200=



000
FTUS45 KREV 050520
TAFRNO
TAF
KRNO 050520Z 0506/0606 VRB04KT P6SM SCT120 SCT200
     FM052100 23008KT P6SM VCSH BKN110 BKN180
     FM060300 VRB04KT P6SM SCT120 BKN200=



    US Dept of Commerce
    National Oceanic and Atmospheric Administration
    National Weather Service
    1325 East West Highway
    Silver Spring, MD 20910
    Page Author: NWS Internet Services Team
Disclaimer
Information Quality
Credits
Glossary
Privacy Policy
Freedom of Information Act (FOIA)
About Us
Career Opportunities